createdAt,value
2019-06-08T00:04:50.686Z,1.30
2019-06-08T00:09:52.761Z,1.20
2019-06-08T00:14:54.805Z,1.40
2019-06-08T00:19:56.903Z,1.30
2019-06-08T00:24:59.150Z,1.20
2019-06-08T00:30:01.449Z,1.00
2019-06-08T00:35:04.191Z,1.00
2019-06-08T00:40:06.668Z,0.85
2019-06-08T00:45:08.860Z,0.80
2019-06-08T00:50:11.484Z,0.80
2019-06-08T00:55:13.549Z,0.63
2019-06-08T01:00:16.312Z,0.97
2019-06-08T01:05:19.761Z,0.80
2019-06-08T01:10:23.457Z,0.60
2019-06-08T01:15:32.227Z,0.70
2019-06-08T01:20:29.858Z,0.73
2019-06-08T01:25:31.916Z,0.80
2019-06-08T01:30:33.951Z,0.90
2019-06-08T01:35:36.006Z,0.63
2019-06-08T01:40:38.091Z,0.90
2019-06-08T01:45:40.166Z,1.00
2019-06-08T01:50:42.222Z,0.57
2019-06-08T01:55:44.330Z,0.80
2019-06-08T02:00:46.369Z,0.90
2019-06-08T02:05:48.420Z,0.73
2019-06-08T02:10:50.569Z,0.70
2019-06-08T02:15:52.648Z,0.60
2019-06-08T02:20:54.722Z,0.83
2019-06-08T02:25:56.792Z,0.50
2019-06-08T02:30:58.899Z,0.60
2019-06-08T02:36:00.930Z,0.50
2019-06-08T02:41:02.988Z,0.60
2019-06-08T02:46:05.034Z,0.60
2019-06-08T02:51:07.245Z,0.90
2019-06-08T02:56:12.524Z,0.80
2019-06-08T03:01:18.252Z,0.80
2019-06-08T03:06:20.698Z,0.60
2019-06-08T03:11:25.068Z,0.73
2019-06-08T03:16:27.110Z,0.70
2019-06-08T03:21:29.162Z,0.50
2019-06-08T03:26:32.094Z,0.80
2019-06-08T03:31:39.008Z,0.70
2019-06-08T03:36:46.132Z,0.70
2019-06-08T03:41:43.184Z,0.83
2019-06-08T03:46:46.444Z,0.70
2019-06-08T03:51:49.083Z,0.70
2019-06-08T03:56:51.532Z,0.60
2019-06-08T04:01:53.564Z,0.43
2019-06-08T04:06:55.630Z,0.50
2019-06-08T04:11:57.672Z,0.60
2019-06-08T04:16:59.734Z,0.80
2019-06-08T04:22:01.830Z,0.60
2019-06-08T04:27:03.833Z,0.60
2019-06-08T04:32:05.887Z,0.60
2019-06-08T04:37:07.946Z,0.90
2019-06-08T04:42:10.043Z,0.80
2019-06-08T04:47:12.125Z,0.80
2019-06-08T04:52:14.219Z,0.90
2019-06-08T04:57:16.288Z,0.80
2019-06-08T05:02:18.376Z,0.73
2019-06-08T05:07:20.486Z,0.90
2019-06-08T05:12:22.530Z,0.80
2019-06-08T05:17:24.602Z,1.00
2019-06-08T05:22:26.621Z,0.67
2019-06-08T05:27:28.693Z,0.77
2019-06-08T05:32:30.803Z,0.80
2019-06-08T05:37:32.856Z,0.80
2019-06-08T05:42:34.912Z,0.73
2019-06-08T05:47:36.984Z,0.70
2019-06-08T05:52:39.863Z,0.70
2019-06-08T05:57:42.174Z,0.80
2019-06-08T06:02:44.778Z,1.00
2019-06-08T06:07:47.125Z,0.60
2019-06-08T06:12:49.195Z,0.90
2019-06-08T06:17:51.654Z,0.67
2019-06-08T06:22:53.857Z,0.90
2019-06-08T06:27:55.955Z,0.73
2019-06-08T06:32:57.876Z,0.70
2019-06-08T06:37:59.953Z,0.77
2019-06-08T06:43:02.105Z,0.80
2019-06-08T06:48:04.263Z,0.63
2019-06-08T06:53:06.295Z,0.80
2019-06-08T06:58:08.510Z,0.90
2019-06-08T07:03:11.343Z,0.70
2019-06-08T07:08:13.378Z,0.80
2019-06-08T07:13:15.422Z,0.70
2019-06-08T07:18:17.470Z,0.83
2019-06-08T07:23:19.566Z,0.87
2019-06-08T07:28:21.847Z,0.83
2019-06-08T07:33:23.873Z,0.70
2019-06-08T07:38:25.900Z,0.83
2019-06-08T07:43:27.916Z,0.93
2019-06-08T07:48:29.981Z,1.10
2019-06-08T07:53:32.046Z,1.02
2019-06-08T07:58:34.105Z,0.70
2019-06-08T08:03:36.191Z,1.05
2019-06-08T08:08:38.273Z,1.00
2019-06-08T08:13:40.338Z,0.80
2019-06-08T08:18:42.426Z,1.13
2019-06-08T08:23:44.484Z,0.90
2019-06-08T08:28:50.025Z,1.67
2019-06-08T08:33:52.530Z,0.67
2019-06-08T08:38:55.947Z,0.90
2019-06-08T08:44:02.787Z,1.30
2019-06-08T08:49:09.436Z,0.83
2019-06-08T08:54:08.499Z,1.17
2019-06-08T08:59:10.830Z,1.07
2019-06-08T09:04:13.058Z,0.83
2019-06-08T09:09:15.150Z,1.27
2019-06-08T09:14:18.436Z,1.03
2019-06-08T09:19:21.496Z,1.30
2019-06-08T09:24:23.553Z,1.27
2019-06-08T09:29:25.588Z,1.30
2019-06-08T09:34:28.281Z,1.10
2019-06-08T09:39:30.490Z,1.10
2019-06-08T09:44:32.552Z,1.20
2019-06-08T09:49:34.591Z,1.10
2019-06-08T09:54:38.468Z,1.00
2019-06-08T09:59:40.727Z,1.35
2019-06-08T10:04:42.806Z,1.50
2019-06-08T10:09:44.878Z,1.50
2019-06-08T10:14:49.008Z,1.13
2019-06-08T10:19:50.897Z,1.02
2019-06-08T10:24:52.916Z,1.10
2019-06-08T10:29:55.269Z,1.10
2019-06-08T10:34:59.999Z,1.47
2019-06-08T10:40:05.440Z,1.20
2019-06-08T10:45:12.479Z,1.00
2019-06-08T10:50:15.392Z,1.12
2019-06-08T10:55:18.003Z,0.98
2019-06-08T11:00:23.978Z,1.20
2019-06-08T11:05:28.051Z,1.27
2019-06-08T11:10:32.327Z,0.93
2019-06-08T11:15:34.429Z,1.15
2019-06-08T11:20:38.215Z,1.10
2019-06-08T11:25:40.450Z,1.15
2019-06-08T11:30:43.727Z,1.22
2019-06-08T11:35:45.989Z,1.30
2019-06-08T11:40:48.063Z,1.45
2019-06-08T11:45:50.095Z,1.20
2019-06-08T11:50:52.224Z,1.37
2019-06-08T11:55:55.120Z,1.20
2019-06-08T12:01:03.475Z,2.22
2019-06-08T12:06:08.584Z,1.12
2019-06-08T12:11:15.881Z,1.10
2019-06-08T12:16:18.058Z,1.70
2019-06-08T12:21:18.530Z,1.05
2019-06-08T12:26:20.852Z,0.93
2019-06-08T12:31:23.068Z,1.25
2019-06-08T12:36:25.325Z,1.17
2019-06-08T12:41:28.861Z,1.00
2019-06-08T12:46:31.407Z,1.10
2019-06-08T12:51:33.423Z,1.30
2019-06-08T12:56:37.643Z,0.90
2019-06-08T13:01:39.567Z,1.05
2019-06-08T13:06:41.630Z,1.00
2019-06-08T13:11:43.645Z,1.20
2019-06-08T13:16:45.704Z,1.17
2019-06-08T13:21:48.736Z,1.47
2019-06-08T13:26:51.018Z,1.10
2019-06-08T13:31:53.106Z,1.10
2019-06-08T13:36:55.159Z,1.45
2019-06-08T13:41:57.221Z,0.98
2019-06-08T13:46:59.380Z,1.00
2019-06-08T13:52:01.447Z,1.50
2019-06-08T13:57:03.582Z,1.00
2019-06-08T14:02:05.668Z,0.82
2019-06-08T14:07:07.948Z,1.07
2019-06-08T14:12:10.453Z,1.02
2019-06-08T14:17:12.524Z,1.00
2019-06-08T14:22:14.669Z,1.10
2019-06-08T14:27:17.123Z,1.17
2019-06-08T14:32:20.749Z,1.10
2019-06-08T14:37:23.430Z,1.20
2019-06-08T14:42:29.670Z,1.02
2019-06-08T14:47:30.377Z,1.05
2019-06-08T14:52:32.763Z,0.90
2019-06-08T14:57:37.472Z,0.95
2019-06-08T15:02:38.953Z,1.00
2019-06-08T15:07:40.999Z,1.10
2019-06-08T15:12:43.077Z,1.02
2019-06-08T15:17:47.754Z,1.10
2019-06-08T15:22:49.913Z,1.30
2019-06-08T15:27:52.073Z,1.40
2019-06-08T15:32:58.677Z,1.20
2019-06-08T15:38:00.528Z,1.12
2019-06-08T15:43:02.649Z,1.12
2019-06-08T15:48:04.736Z,1.10
2019-06-08T15:53:08.447Z,0.82
2019-06-08T15:58:10.775Z,1.10
2019-06-08T16:03:12.800Z,1.00
2019-06-08T16:08:14.857Z,1.17
2019-06-08T16:13:16.915Z,1.42
2019-06-08T16:18:19.005Z,1.20
2019-06-08T16:23:21.081Z,1.07
2019-06-08T16:28:23.162Z,2.42
2019-06-08T16:33:25.338Z,2.70
2019-06-08T16:38:27.923Z,1.65
2019-06-08T16:43:31.060Z,1.37
2019-06-08T16:48:34.587Z,2.50
2019-06-08T16:53:36.837Z,1.85
2019-06-08T16:58:38.992Z,1.57
2019-06-08T17:03:41.604Z,1.35
2019-06-08T17:08:43.892Z,1.12
2019-06-08T17:13:45.968Z,1.52
2019-06-08T17:18:48.018Z,0.95
2019-06-08T17:23:50.112Z,1.35
2019-06-08T17:28:52.532Z,1.65
2019-06-08T17:33:54.678Z,1.90
2019-06-08T17:38:57.094Z,2.00
2019-06-08T17:43:59.169Z,1.62
2019-06-08T17:49:01.231Z,1.77
2019-06-08T17:54:03.284Z,2.55
2019-06-08T17:59:05.607Z,1.70
2019-06-08T18:04:08.283Z,1.70
2019-06-08T18:09:10.291Z,1.20
2019-06-08T18:14:13.058Z,1.62
2019-06-08T18:19:28.368Z,1.20
2019-06-08T18:24:30.464Z,1.80
2019-06-08T18:29:32.582Z,2.00
2019-06-08T18:34:35.324Z,1.82
2019-06-08T18:39:41.718Z,1.70
2019-06-08T18:44:43.996Z,1.70
2019-06-08T18:49:48.890Z,1.98
2019-06-08T18:54:51.175Z,2.97
2019-06-08T18:59:53.336Z,3.00
2019-06-08T19:04:57.378Z,2.10
2019-06-08T19:10:02.301Z,1.80
2019-06-08T19:15:05.237Z,3.50
2019-06-08T19:20:07.433Z,2.72
2019-06-08T19:25:09.719Z,2.00
2019-06-08T19:30:11.840Z,1.70
2019-06-08T19:35:13.980Z,1.60
2019-06-08T19:40:17.651Z,1.70
2019-06-08T19:45:20.008Z,1.70
2019-06-08T19:50:22.116Z,1.53
2019-06-08T19:55:24.166Z,1.83
2019-06-08T20:00:28.282Z,1.90
2019-06-08T20:05:30.189Z,2.70
2019-06-08T20:10:32.222Z,2.43
2019-06-08T20:15:34.280Z,2.10
2019-06-08T20:20:38.146Z,2.27
2019-06-08T20:25:41.097Z,1.63
2019-06-08T20:30:44.287Z,1.90
2019-06-08T20:35:48.519Z,1.87
2019-06-08T20:40:50.484Z,1.70
2019-06-08T20:45:53.473Z,2.00
2019-06-08T20:50:57.242Z,2.00
2019-06-08T20:55:59.567Z,3.20
2019-06-08T21:01:01.639Z,2.97
2019-06-08T21:06:03.806Z,2.40
2019-06-08T21:11:08.320Z,2.63
2019-06-08T21:16:09.820Z,3.13
2019-06-08T21:21:11.870Z,3.87
2019-06-08T21:26:13.908Z,4.97
2019-06-08T21:31:17.729Z,5.77
2019-06-08T21:36:19.982Z,5.27
2019-06-08T21:41:22.032Z,6.73
2019-06-08T21:46:24.072Z,6.60
2019-06-08T21:51:26.331Z,6.40
2019-06-08T21:56:28.457Z,5.90
2019-06-08T22:01:31.469Z,5.12
2019-06-08T22:06:33.527Z,4.47
2019-06-08T22:11:37.614Z,4.80
2019-06-08T22:16:39.905Z,4.73
2019-06-08T22:21:41.934Z,5.57
2019-06-08T22:26:44.078Z,4.37
2019-06-08T22:31:47.904Z,3.70
2019-06-08T22:36:50.257Z,2.70
2019-06-08T22:41:53.431Z,2.90
2019-06-08T22:46:58.432Z,3.27
2019-06-08T22:52:01.010Z,2.30
2019-06-08T22:57:04.833Z,2.60
2019-06-08T23:02:09.106Z,2.73
2019-06-08T23:07:25.869Z,2.60
2019-06-08T23:12:14.991Z,3.03
2019-06-08T23:17:17.858Z,3.00
2019-06-08T23:22:20.018Z,2.37
2019-06-08T23:27:22.026Z,2.10
2019-06-08T23:32:24.053Z,2.57
2019-06-08T23:37:27.710Z,2.53
2019-06-08T23:42:29.900Z,2.60
2019-06-08T23:47:31.944Z,2.40
2019-06-08T23:52:34.067Z,2.57
2019-06-08T23:57:38.004Z,2.40
